KCRX/CRX METAR and TAF weather

Enter ICAO airport designator
Station Type Date Time Source
KCRX METAR 2021/06/22 23:35 UTC NOAA

KCRX 222335Z AUTO 02006KT 10SM CLR 25/10 A3000 RMK AO2


Station Type Date Time Source
KCRX Decoded METAR 2021/06/22 23:35 UTC NOAA

Station name not available
Jun 22, 2021 - 07:35 PM EDT / 2021.06.22 2335 UTC
Wind: from the NNE (020 degrees) at 7 MPH (6 KT):0
Visibility: 10 mile(s):0
Sky conditions: clear
Temperature: 77 F (25 C)
Dew Point: 50 F (10 C)
Relative Humidity: 38%
Pressure (altimeter): 30 in. Hg (1015 hPa)
ob: KCRX 222335Z AUTO 02006KT 10SM CLR 25/10 A3000 RMK AO2
cycle: 23

Station Type Date Time Source
KCRX TAF UTC NOAA

Error!

Example: see airport list